Destinations Frankfurt am Main Airport

Frankfurt am Main Airport (EDDF / FRA)

Flights to Frankfurt am Main Airport

Flight number From ETE Dispatch
SPY-108 EHGG Groningen Airport Eelde 01:10
SPY-2422 EGPH Edinburgh Airport 02:05

Flights from Frankfurt am Main Airport

Flight number To ETE Dispatch
SPY-109 EHGG Groningen Airport Eelde 01:15
SPY-2423 EGPH Edinburgh Airport 02:05
About

Frankfurt am Main Airport facts

Frankfurt am Main Airport is located in Frankfurt at an elevation of 110.9 meters or 364 feet.

Currently, Speedy Airlines serves 4 flights to and from Frankfurt am Main Airport.

Detailed airport info

Route map

Weather

Current weather

METAR

METAR

Metar data retrieved Sunday, 21 July 2024 at 18:55 UTC

EDDF 211820Z AUTO 25011KT CAVOK 28/15 Q1009 NOSIG
Wind Temperature
11 kt 28c